Thursday, August 24, 2017, 12:59 AM EDT

KDOV, Dover Air Force Base

Location: Dover, DE, United States Lat: 39.133
Local Time: 12:59 AM EDT ( 4:59 GMT) Lon: -75.467
Time Zone: US/Eastern Elev: 29 ft

Show me the last for .
Show Decoded

2017-08-23 23:58 METAR KDOV 240358Z 31003KT 10SM CLR 21/16 A2989 RMK AO2A SLP125 $ =
2017-08-23 22:58 METAR KDOV 240258Z 30004KT 10SM CLR 21/15 A2988 RMK AO2A SLP121 52006 $ =
2017-08-23 21:58 METAR KDOV 240158Z 34004KT 10SM CLR 20/15 A2989 RMK AO2A SLP118 $ =
2017-08-23 20:58 METAR KDOV 240058Z 34005KT 10SM SCT100 22/15 A2988 RMK AO2A SLP115 $ =
2017-08-23 19:58 METAR KDOV 232358Z 33006KT 10SM OVC095 24/16 A2988 RMK AO2A RAE08 SLP115 P0000
                 60000 10278 20163 53009 $ =
2017-08-23 19:08 METAR KDOV 232308Z 36005KT 10SM BKN085 25/16 A2986 RMK AO2A RAE08 PRESFR SLP108
                 =
2017-08-23 18:58 METAR KDOV 232258Z 34005KT 10SM -RA BKN080 25/17 A2986 RMK AO2A RAB57 SLP108 $ =
2017-08-23 17:58 METAR KDOV 232158Z 33006KT 10SM BKN065 OVC080 26/16 A2985 RMK AO2A SLP104 $ =
2017-08-23 16:58 METAR KDOV 232058Z 33008KT 10SM BKN100 27/17 A2985 RMK AO2A SLP104 56006 $ =
2017-08-23 15:58 METAR KDOV 231958Z 32006KT 10SM FEW034 BKN100 27/17 A2985 RMK AO2A SLP104 $ =
2017-08-23 14:58 METAR KDOV 231858Z 32006KT 10SM FEW040 BKN090 OVC200 27/19 A2986 RMK AO2A SLP108
                 $ =
2017-08-23 13:58 METAR KDOV 231758Z 35006KT 10SM FEW040 BKN090 BKN200 28/20 A2985 RMK AO2A SLP111
                 10277 20257 50001 $ =
2017-08-23 12:58 METAR KDOV 231658Z 35010KT 10SM BKN090 BKN200 27/19 A2985 RMK AO2A SLP111 $ =
2017-08-23 11:58 METAR KDOV 231558Z 32008KT 10SM FEW050 SCT100 BKN200 26/20 A2985 RMK AO2A SLP111
                 $ =
2017-08-23 10:58 METAR KDOV 231458Z 32008KT 10SM FEW030 SCT100 BKN200 27/20 A2985 RMK AO2A SLP111
                 52013 $ =
2017-08-23 09:58 METAR KDOV 231358Z 34010KT 10SM SCT080 SCT160 27/20 A2983 RMK AO2A SLP104 $ =
2017-08-23 08:58 METAR KDOV 231258Z 31009KT 10SM SCT080 SCT160 26/22 A2982 RMK AO2A SLP101 $ =
2017-08-23 07:58 METAR KDOV 231158Z 29007KT 10SM SCT070 BKN085 25/22 A2981 RMK AO2A SLP098 10264
                 20238 52012 $ =
2017-08-23 06:58 METAR KDOV 231058Z 28005KT 10SM FEW065 BKN080 25/21 A2980 RMK AO2A SLP094 $ =
2017-08-23 05:58 METAR KDOV 230958Z AUTO 26003KT 10SM FEW060 25/25 A2979 RMK AO2 SLP091 T02450245
                 $ =
2017-08-23 04:58 METAR KDOV 230858Z 15003KT 10SM CLR 24/23 A2977 RMK AO2A SLP084 57005 $ =
2017-08-23 03:58 METAR KDOV 230758Z 34003KT 10SM FEW046 25/25 A2978 RMK AO2A SLP087 TSNO $ =
2017-08-23 02:58 METAR KDOV 230658Z 22005KT 10SM FEW033 SCT050 26/25 A2978 RMK AO2A SLP087 TSNO $
                 =
2017-08-23 01:58 METAR KDOV 230558Z 27006KT 10SM FEW075 26/23 A2979 RMK AO2A SLP091 10279 20264
                 55003 TSNO $ =

Support USWX by starting your Amazon purchase here.